Time,TemperatureF,DewpointF,PressureIn,WindDirection,WindDirectionDegrees,WindSpeedMPH,WindSpeedGustMPH,Humidity,HourlyPrecipIn,Conditions,Clouds,dailyrainin,SoftwareType,DateUTC
2013-09-20 00:02:00,51.3,49.3,29.73,West,261,0.0,1.0,93,0.00,,,0.00,meteohub,2013-09-20 07:02:00,
2013-09-20 00:07:00,51.3,49.3,29.73,West,261,0.0,1.0,93,0.00,,,0.00,meteohub,2013-09-20 07:07:00,
2013-09-20 00:12:00,51.3,49.3,29.73,West,261,0.0,1.0,93,0.00,,,0.00,meteohub,2013-09-20 07:12:00,
2013-09-20 00:17:00,51.1,49.1,29.73,West,261,0.0,1.0,93,0.00,,,0.00,meteohub,2013-09-20 07:17:00,
2013-09-20 00:22:00,50.9,48.9,29.73,West,261,0.0,1.0,93,0.00,,,0.00,meteohub,2013-09-20 07:22:00,
2013-09-20 00:27:00,50.7,48.7,29.73,West,261,0.0,2.0,93,0.00,,,0.00,meteohub,2013-09-20 07:27:00,
2013-09-20 00:32:00,50.5,48.6,29.73,West,261,0.0,2.0,93,0.00,,,0.00,meteohub,2013-09-20 07:32:00,
2013-09-20 00:37:00,50.5,48.6,29.73,West,261,0.0,2.0,93,0.00,,,0.00,meteohub,2013-09-20 07:37:00,
2013-09-20 00:42:00,50.4,48.4,29.73,West,261,0.0,0.0,93,0.00,,,0.00,meteohub,2013-09-20 07:42:00,
2013-09-20 00:47:00,50.4,48.7,29.73,West,261,0.0,2.0,94,0.00,,,0.00,meteohub,2013-09-20 07:47:00,
2013-09-20 00:52:00,50.4,48.7,29.73,West,261,0.0,2.0,94,0.00,,,0.00,meteohub,2013-09-20 07:52:00,
2013-09-20 00:57:00,50.5,48.9,29.73,West,261,2.0,2.0,94,0.00,,,0.00,meteohub,2013-09-20 07:57:00,
2013-09-20 01:02:00,50.4,48.7,29.73,West,261,0.0,2.0,94,0.00,,,0.00,meteohub,2013-09-20 08:02:00,
2013-09-20 01:07:00,50.4,48.7,29.73,West,261,0.0,2.0,94,0.00,,,0.00,meteohub,2013-09-20 08:07:00,
2013-09-20 01:12:00,50.4,48.7,29.73,West,261,0.0,2.0,94,0.00,,,0.00,meteohub,2013-09-20 08:12:00,
2013-09-20 01:17:00,50.4,48.7,29.73,West,261,0.0,0.0,94,0.00,,,0.00,meteohub,2013-09-20 08:17:00,
2013-09-20 01:22:00,50.4,48.7,29.73,West,261,0.0,0.0,94,0.00,,,0.00,meteohub,2013-09-20 08:22:00,
2013-09-20 01:27:00,50.4,48.7,29.73,West,261,0.0,0.0,94,0.00,,,0.00,meteohub,2013-09-20 08:27:00,
2013-09-20 01:32:00,50.4,48.7,29.73,West,261,0.0,0.0,94,0.00,,,0.00,meteohub,2013-09-20 08:32:00,
2013-09-20 01:37:00,50.2,48.6,29.73,West,261,0.0,0.0,94,0.00,,,0.00,meteohub,2013-09-20 08:37:00,
2013-09-20 01:42:00,50.2,48.6,29.73,West,261,0.0,1.0,94,0.00,,,0.00,meteohub,2013-09-20 08:42:00,
2013-09-20 01:47:00,49.8,48.2,29.73,West,261,0.0,2.0,94,0.00,,,0.00,meteohub,2013-09-20 08:47:00,
2013-09-20 01:52:00,49.6,48.0,29.73,West,261,0.0,2.0,94,0.00,,,0.00,meteohub,2013-09-20 08:52:00,
2013-09-20 01:57:00,49.5,47.5,29.73,West,261,0.0,2.0,93,0.00,,,0.00,meteohub,2013-09-20 08:57:00,
2013-09-20 02:02:00,49.5,47.8,29.73,West,261,0.0,1.0,94,0.00,,,0.00,meteohub,2013-09-20 09:02:00,
2013-09-20 02:07:00,49.5,47.8,29.73,West,261,0.0,1.0,94,0.00,,,0.00,meteohub,2013-09-20 09:07:00,
2013-09-20 02:12:00,49.5,47.8,29.73,West,261,0.0,1.0,94,0.00,,,0.00,meteohub,2013-09-20 09:12:00,
2013-09-20 02:17:00,49.3,47.7,29.73,West,261,0.0,0.0,94,0.00,,,0.00,meteohub,2013-09-20 09:17:00,
2013-09-20 02:22:00,49.3,47.7,29.73,West,261,0.0,0.0,94,0.00,,,0.00,meteohub,2013-09-20 09:22:00,
2013-09-20 02:27:00,48.9,47.3,29.73,West,261,0.0,0.0,94,0.00,,,0.00,meteohub,2013-09-20 09:27:00,
2013-09-20 02:37:00,49.1,47.5,29.73,West,261,0.0,0.0,94,0.00,,,0.00,meteohub,2013-09-20 09:37:00,
2013-09-20 02:42:00,49.3,47.7,29.73,West,261,0.0,0.0,94,0.00,,,0.00,meteohub,2013-09-20 09:42:00,
2013-09-20 02:47:00,49.3,47.7,29.73,West,261,0.0,0.0,94,0.00,,,0.00,meteohub,2013-09-20 09:47:00,
2013-09-20 02:52:00,49.3,47.7,29.73,West,261,2.0,2.0,94,0.00,,,0.00,meteohub,2013-09-20 09:52:00,
2013-09-20 02:57:00,49.3,47.7,29.73,West,261,0.0,2.0,94,0.00,,,0.00,meteohub,2013-09-20 09:57:00,
2013-09-20 03:02:00,49.3,47.7,29.73,West,261,0.0,2.0,94,0.00,,,0.00,meteohub,2013-09-20 10:02:00,
2013-09-20 03:07:00,49.5,47.8,29.73,West,261,2.0,2.0,94,0.00,,,0.00,meteohub,2013-09-20 10:07:00,
2013-09-20 03:12:00,49.6,47.7,29.73,West,261,2.0,3.0,93,0.00,,,0.00,meteohub,2013-09-20 10:12:00,
2013-09-20 03:17:00,50.2,48.2,29.73,West,261,3.0,4.0,93,0.00,,,0.00,meteohub,2013-09-20 10:17:00,
2013-09-20 03:22:00,50.5,48.0,29.73,West,261,3.0,4.0,91,0.00,,,0.00,meteohub,2013-09-20 10:22:00,
2013-09-20 03:27:00,50.9,48.4,29.73,West,261,5.0,5.0,91,0.00,,,0.00,meteohub,2013-09-20 10:27:00,
2013-09-20 03:32:00,51.3,48.4,29.73,West,261,4.0,5.0,90,0.00,,,0.00,meteohub,2013-09-20 10:32:00,
2013-09-20 03:37:00,51.4,48.4,29.73,West,261,4.0,5.0,89,0.00,,,0.00,meteohub,2013-09-20 10:37:00,
2013-09-20 03:42:00,52.0,48.9,29.73,West,261,4.0,5.0,89,0.00,,,0.00,meteohub,2013-09-20 10:42:00,
2013-09-20 03:47:00,51.8,48.4,29.73,West,261,2.0,5.0,88,0.00,,,0.00,meteohub,2013-09-20 10:47:00,
2013-09-20 03:52:00,51.8,48.4,29.73,West,261,3.0,5.0,88,0.00,,,0.00,meteohub,2013-09-20 10:52:00,
2013-09-20 03:57:00,52.0,48.9,29.73,West,261,3.0,6.0,89,0.00,,,0.00,meteohub,2013-09-20 10:57:00,
2013-09-20 04:02:00,52.2,48.7,29.73,West,261,3.0,6.0,88,0.00,,,0.00,meteohub,2013-09-20 11:02:00,
2013-09-20 04:07:00,52.0,48.9,29.73,West,261,4.0,6.0,89,0.00,,,0.00,meteohub,2013-09-20 11:07:00,
2013-09-20 04:12:00,52.0,48.9,29.73,West,261,3.0,5.0,89,0.00,,,0.00,meteohub,2013-09-20 11:12:00,
2013-09-20 04:17:00,51.8,48.7,29.73,West,261,2.0,5.0,89,0.00,,,0.00,meteohub,2013-09-20 11:17:00,
2013-09-20 04:22:00,51.8,48.9,29.73,West,261,2.0,5.0,90,0.00,,,0.00,meteohub,2013-09-20 11:22:00,
2013-09-20 04:27:00,51.8,49.3,29.72,West,261,2.0,4.0,91,0.00,,,0.00,meteohub,2013-09-20 11:27:00,
2013-09-20 04:32:00,51.6,48.7,29.72,West,261,0.0,4.0,90,0.00,,,0.00,meteohub,2013-09-20 11:32:00,
2013-09-20 04:37:00,51.4,48.9,29.72,West,261,2.0,4.0,91,0.00,,,0.00,meteohub,2013-09-20 11:37:00,
2013-09-20 04:42:00,51.4,49.3,29.72,West,261,1.0,3.0,92,0.00,,,0.00,meteohub,2013-09-20 11:42:00,
2013-09-20 04:47:00,51.4,49.3,29.72,West,261,2.0,3.0,92,0.00,,,0.00,meteohub,2013-09-20 11:47:00,
2013-09-20 04:52:00,51.3,49.1,29.72,West,261,2.0,3.0,92,0.00,,,0.00,meteohub,2013-09-20 11:52:00,
2013-09-20 04:57:00,51.3,49.1,29.72,West,261,2.0,3.0,92,0.00,,,0.00,meteohub,2013-09-20 11:57:00,
2013-09-20 05:02:00,51.3,49.3,29.72,West,261,2.0,3.0,93,0.00,,,0.00,meteohub,2013-09-20 12:02:00,
2013-09-20 05:07:00,51.1,49.1,29.72,West,261,0.0,3.0,93,0.00,,,0.00,meteohub,2013-09-20 12:07:00,
2013-09-20 05:12:00,50.9,48.9,29.72,West,261,1.0,3.0,93,0.00,,,0.00,meteohub,2013-09-20 12:12:00,
2013-09-20 05:17:00,50.7,48.7,29.72,West,261,2.0,3.0,93,0.00,,,0.00,meteohub,2013-09-20 12:17:00,
2013-09-20 05:22:00,50.5,48.6,29.72,West,261,0.0,3.0,93,0.00,,,0.00,meteohub,2013-09-20 12:22:00,
2013-09-20 05:27:00,50.4,48.4,29.72,West,261,0.0,3.0,93,0.00,,,0.00,meteohub,2013-09-20 12:27:00,
2013-09-20 05:32:00,50.2,48.2,29.72,West,261,2.0,2.0,93,0.00,,,0.00,meteohub,2013-09-20 12:32:00,
2013-09-20 05:37:00,49.8,47.8,29.72,West,261,0.0,3.0,93,0.00,,,0.00,meteohub,2013-09-20 12:37:00,
2013-09-20 05:42:00,49.6,47.7,29.72,West,261,0.0,3.0,93,0.00,,,0.00,meteohub,2013-09-20 12:42:00,
2013-09-20 05:47:00,49.6,47.7,29.72,West,261,0.0,3.0,93,0.00,,,0.00,meteohub,2013-09-20 12:47:00,
2013-09-20 05:52:00,49.5,47.8,29.72,West,261,0.0,1.0,94,0.00,,,0.00,meteohub,2013-09-20 12:52:00,
2013-09-20 05:57:00,49.6,48.0,29.72,West,261,0.0,0.0,94,0.00,,,0.00,meteohub,2013-09-20 12:57:00,
2013-09-20 06:02:00,50.2,48.7,29.72,West,261,0.0,0.0,95,0.00,,,0.00,meteohub,2013-09-20 13:02:00,
2013-09-20 06:07:00,50.4,48.9,29.72,West,261,0.0,0.0,95,0.00,,,0.00,meteohub,2013-09-20 13:07:00,
2013-09-20 06:12:00,50.7,49.3,29.72,West,261,2.0,0.0,95,0.00,,,0.00,meteohub,2013-09-20 13:12:00,
2013-09-20 06:17:00,50.5,49.1,29.72,West,261,0.0,2.0,95,0.00,,,0.00,meteohub,2013-09-20 13:17:00,
2013-09-20 06:22:00,50.7,49.3,29.72,West,261,0.0,3.0,95,0.00,,,0.00,meteohub,2013-09-20 13:22:00,
2013-09-20 06:27:00,50.7,49.1,29.72,West,261,0.0,3.0,94,0.00,,,0.00,meteohub,2013-09-20 13:27:00,
2013-09-20 06:32:00,50.7,49.1,29.72,West,261,0.0,3.0,94,0.00,,,0.00,meteohub,2013-09-20 13:32:00,
2013-09-20 06:37:00,50.5,48.9,29.72,West,261,0.0,0.0,94,0.00,,,0.00,meteohub,2013-09-20 13:37:00,
2013-09-20 06:42:00,50.5,48.9,29.73,West,261,0.0,0.0,94,0.00,,,0.00,meteohub,2013-09-20 13:42:00,
2013-09-20 06:47:00,50.5,48.9,29.73,West,261,0.0,0.0,94,0.00,,,0.00,meteohub,2013-09-20 13:47:00,
2013-09-20 06:52:00,50.5,48.9,29.73,West,261,0.0,0.0,94,0.00,,,0.00,meteohub,2013-09-20 13:52:00,
2013-09-20 06:57:00,50.4,48.7,29.73,West,261,0.0,0.0,94,0.00,,,0.00,meteohub,2013-09-20 13:57:00,
2013-09-20 07:02:00,50.4,48.7,29.73,West,261,0.0,0.0,94,0.00,,,0.00,meteohub,2013-09-20 14:02:00,
2013-09-20 07:07:00,50.4,48.9,29.73,West,261,0.0,0.0,95,0.00,,,0.00,meteohub,2013-09-20 14:07:00,
2013-09-20 07:12:00,50.5,49.1,29.73,West,261,0.0,0.0,95,0.00,,,0.00,meteohub,2013-09-20 14:12:00,
2013-09-20 07:17:00,50.7,49.3,29.73,West,261,0.0,0.0,95,0.00,,,0.00,meteohub,2013-09-20 14:17:00,
2013-09-20 07:22:00,50.5,48.9,29.73,West,261,0.0,0.0,94,0.00,,,0.00,meteohub,2013-09-20 14:22:00,
2013-09-20 07:27:00,50.5,49.1,29.75,West,261,1.0,2.0,95,0.00,,,0.00,meteohub,2013-09-20 14:27:00,
2013-09-20 07:32:00,50.5,49.1,29.75,West,261,0.0,2.0,95,0.00,,,0.00,meteohub,2013-09-20 14:32:00,
2013-09-20 07:37:00,50.5,49.1,29.75,West,261,0.0,2.0,95,0.00,,,0.00,meteohub,2013-09-20 14:37:00,
2013-09-20 07:42:00,50.5,49.1,29.75,West,261,0.0,2.0,95,0.00,,,0.00,meteohub,2013-09-20 14:42:00,
2013-09-20 07:47:00,50.5,49.1,29.75,West,261,0.0,0.0,95,0.00,,,0.00,meteohub,2013-09-20 14:47:00,
2013-09-20 07:52:00,50.5,49.1,29.75,West,261,0.0,0.0,95,0.00,,,0.00,meteohub,2013-09-20 14:52:00,
2013-09-20 07:57:00,50.5,49.1,29.75,West,261,1.0,1.0,95,0.00,,,0.00,meteohub,2013-09-20 14:57:00,
2013-09-20 08:02:00,50.7,49.3,29.75,West,261,2.0,3.0,95,0.00,,,0.00,meteohub,2013-09-20 15:02:00,
2013-09-20 08:07:00,51.1,49.6,29.75,West,261,3.0,4.0,95,0.00,,,0.00,meteohub,2013-09-20 15:07:00,
2013-09-20 08:12:00,51.3,49.8,29.75,West,261,0.0,4.0,95,0.00,,,0.00,meteohub,2013-09-20 15:12:00,
2013-09-20 08:17:00,51.6,50.2,29.75,West,261,3.0,4.0,95,0.00,,,0.00,meteohub,2013-09-20 15:17:00,
2013-09-20 08:22:00,52.3,51.3,29.75,West,261,5.0,5.0,96,0.00,,,0.00,meteohub,2013-09-20 15:22:00,
2013-09-20 08:27:00,52.2,50.7,29.75,West,261,5.0,7.0,95,0.00,,,0.00,meteohub,2013-09-20 15:27:00,
2013-09-20 08:32:00,52.2,50.7,29.75,West,261,6.0,7.0,95,0.00,,,0.00,meteohub,2013-09-20 15:32:00,
2013-09-20 08:37:00,52.3,50.9,29.75,West,261,5.0,7.0,95,0.00,,,0.00,meteohub,2013-09-20 15:37:00,
2013-09-20 08:42:00,52.9,51.8,29.76,West,261,4.0,6.0,96,0.00,,,0.00,meteohub,2013-09-20 15:42:00,
2013-09-20 08:47:00,53.2,51.8,29.76,West,261,5.0,6.0,95,0.00,,,0.00,meteohub,2013-09-20 15:47:00,
2013-09-20 08:52:00,53.4,52.0,29.76,West,261,6.0,7.0,95,0.00,,,0.00,meteohub,2013-09-20 15:52:00,
2013-09-20 08:57:00,53.8,52.3,29.76,West,261,8.0,8.0,95,0.00,,,0.00,meteohub,2013-09-20 15:57:00,
2013-09-20 09:02:00,54.1,52.7,29.76,West,267,7.0,9.0,95,0.00,,,0.00,meteohub,2013-09-20 16:02:00,
2013-09-20 09:07:00,54.7,53.2,29.76,West,271,8.0,11.0,95,0.00,,,0.00,meteohub,2013-09-20 16:07:00,
2013-09-20 09:12:00,55.6,54.0,29.77,West,265,14.0,14.0,94,0.00,,,0.00,meteohub,2013-09-20 16:12:00,
2013-09-20 09:17:00,56.8,54.9,29.77,West,259,15.0,16.0,93,0.00,,,0.00,meteohub,2013-09-20 16:17:00,
2013-09-20 09:22:00,57.6,55.2,29.77,WSW,252,18.0,24.0,92,0.00,,,0.00,meteohub,2013-09-20 16:22:00,
2013-09-20 09:27:00,57.7,55.2,29.78,WNW,290,16.0,24.0,91,0.00,,,0.00,meteohub,2013-09-20 16:27:00,
2013-09-20 09:32:00,57.9,55.2,29.78,West,277,16.0,21.0,91,0.00,,,0.00,meteohub,2013-09-20 16:32:00,
2013-09-20 09:37:00,58.6,55.4,29.78,West,276,17.0,21.0,89,0.00,,,0.00,meteohub,2013-09-20 16:37:00,
2013-09-20 09:42:00,58.8,55.2,29.79,West,275,16.0,21.0,88,0.00,,,0.00,meteohub,2013-09-20 16:42:00,
2013-09-20 09:47:00,59.0,55.4,29.79,WNW,282,14.0,21.0,88,0.00,,,0.00,meteohub,2013-09-20 16:47:00,
2013-09-20 09:52:00,59.4,55.8,29.79,WNW,286,10.0,21.0,88,0.00,,,0.00,meteohub,2013-09-20 16:52:00,
2013-09-20 09:57:00,59.9,55.9,29.79,West,273,16.0,20.0,87,0.00,,,0.00,meteohub,2013-09-20 16:57:00,
2013-09-20 10:02:00,60.4,56.3,29.79,West,273,18.0,18.0,86,0.00,,,0.00,meteohub,2013-09-20 17:02:00,
2013-09-20 10:07:00,61.3,56.8,29.79,WSW,251,15.0,21.0,85,0.00,,,0.00,meteohub,2013-09-20 17:07:00,
2013-09-20 10:12:00,62.2,57.4,29.79,WNW,284,12.0,21.0,84,0.00,,,0.00,meteohub,2013-09-20 17:12:00,
2013-09-20 10:17:00,63.0,57.7,29.79,West,278,13.0,21.0,83,0.00,,,0.00,meteohub,2013-09-20 17:17:00,
2013-09-20 10:22:00,63.9,58.3,29.79,West,279,10.0,21.0,82,0.00,,,0.00,meteohub,2013-09-20 17:22:00,
2013-09-20 10:27:00,64.8,58.5,29.79,West,266,12.0,21.0,80,0.00,,,0.00,meteohub,2013-09-20 17:27:00,
2013-09-20 10:32:00,65.5,59.2,29.79,WNW,291,13.0,21.0,80,0.00,,,0.00,meteohub,2013-09-20 17:32:00,
2013-09-20 10:37:00,66.7,59.0,29.79,WNW,286,15.0,16.0,76,0.00,,,0.00,meteohub,2013-09-20 17:37:00,
2013-09-20 10:42:00,67.5,59.2,29.79,West,279,9.0,17.0,75,0.00,,,0.00,meteohub,2013-09-20 17:42:00,
2013-09-20 10:47:00,67.8,59.2,29.79,SW,223,9.0,17.0,74,0.00,,,0.00,meteohub,2013-09-20 17:47:00,
2013-09-20 10:52:00,68.7,59.7,29.79,West,262,13.0,15.0,73,0.00,,,0.00,meteohub,2013-09-20 17:52:00,
2013-09-20 10:57:00,69.3,59.5,29.79,West,262,14.0,19.0,71,0.00,,,0.00,meteohub,2013-09-20 17:57:00,
2013-09-20 11:02:00,69.1,58.8,29.79,WSW,253,12.0,21.0,70,0.00,,,0.00,meteohub,2013-09-20 18:02:00,
2013-09-20 11:07:00,69.3,59.5,29.79,West,277,12.0,22.0,71,0.00,,,0.00,meteohub,2013-09-20 18:07:00,
2013-09-20 11:12:00,69.4,59.5,29.78,West,265,15.0,22.0,71,0.00,,,0.00,meteohub,2013-09-20 18:12:00,
2013-09-20 11:17:00,70.0,59.7,29.78,West,268,12.0,22.0,70,0.00,,,0.00,meteohub,2013-09-20 18:17:00,
2013-09-20 11:22:00,70.3,59.4,29.78,West,274,15.0,21.0,68,0.00,,,0.00,meteohub,2013-09-20 18:22:00,
2013-09-20 11:27:00,70.0,59.4,29.79,West,277,16.0,21.0,69,0.00,,,0.00,meteohub,2013-09-20 18:27:00,
2013-09-20 11:37:00,68.9,59.9,29.79,WSW,248,18.0,27.0,73,0.00,,,0.00,meteohub,2013-09-20 18:37:00,
2013-09-20 11:42:00,68.7,60.4,29.79,West,268,16.0,27.0,75,0.00,,,0.00,meteohub,2013-09-20 18:42:00,
2013-09-20 11:47:00,68.5,60.6,29.79,West,280,19.0,27.0,76,0.00,,,0.00,meteohub,2013-09-20 18:47:00,
2013-09-20 11:52:00,69.1,61.2,29.79,West,269,11.0,24.0,76,0.00,,,0.00,meteohub,2013-09-20 18:52:00,
2013-09-20 11:57:00,69.3,61.0,29.79,WSW,257,14.0,24.0,75,0.00,,,0.00,meteohub,2013-09-20 18:57:00,
2013-09-20 12:07:00,68.4,60.8,29.79,WNW,284,13.0,25.0,77,0.00,,,0.00,meteohub,2013-09-20 19:07:00,
2013-09-20 12:12:00,68.9,61.0,29.79,West,259,16.0,25.0,76,0.00,,,0.00,meteohub,2013-09-20 19:12:00,
2013-09-20 12:17:00,68.4,60.4,29.79,WSW,257,14.0,24.0,76,0.00,,,0.00,meteohub,2013-09-20 19:17:00,
2013-09-20 12:22:00,69.6,60.6,29.79,WSW,257,16.0,24.0,73,0.00,,,0.00,meteohub,2013-09-20 19:22:00,
2013-09-20 12:27:00,70.2,60.3,29.78,WSW,256,11.0,23.0,71,0.00,,,0.00,meteohub,2013-09-20 19:27:00,
2013-09-20 12:32:00,70.3,60.4,29.78,West,260,19.0,22.0,71,0.00,,,0.00,meteohub,2013-09-20 19:32:00,
2013-09-20 12:37:00,70.9,61.0,29.78,West,259,16.0,22.0,71,0.00,,,0.00,meteohub,2013-09-20 19:37:00,
2013-09-20 12:42:00,70.5,60.6,29.78,West,279,16.0,24.0,71,0.00,,,0.00,meteohub,2013-09-20 19:42:00,
2013-09-20 12:47:00,69.6,61.0,29.78,West,263,14.0,24.0,74,0.00,,,0.00,meteohub,2013-09-20 19:47:00,
2013-09-20 12:52:00,70.3,60.8,29.78,WNW,286,15.0,24.0,72,0.00,,,0.00,meteohub,2013-09-20 19:52:00,
2013-09-20 12:57:00,70.9,60.6,29.78,WSW,258,17.0,21.0,70,0.00,,,0.00,meteohub,2013-09-20 19:57:00,
2013-09-20 13:02:00,70.9,60.6,29.78,West,260,12.0,20.0,70,0.00,,,0.00,meteohub,2013-09-20 20:02:00,
2013-09-20 13:07:00,70.5,60.3,29.78,WNW,283,14.0,22.0,70,0.00,,,0.00,meteohub,2013-09-20 20:07:00,
2013-09-20 13:12:00,70.2,60.3,29.79,WNW,291,13.0,22.0,71,0.00,,,0.00,meteohub,2013-09-20 20:12:00,
2013-09-20 13:17:00,69.8,60.4,29.79,West,267,17.0,22.0,72,0.00,,,0.00,meteohub,2013-09-20 20:17:00,
2013-09-20 13:22:00,70.3,60.4,29.79,West,277,18.0,23.0,71,0.00,,,0.00,meteohub,2013-09-20 20:22:00,
2013-09-20 13:27:00,70.5,60.6,29.79,West,263,22.0,23.0,71,0.00,,,0.00,meteohub,2013-09-20 20:27:00,
2013-09-20 13:32:00,70.3,60.8,29.79,WSW,250,17.0,25.0,72,0.00,,,0.00,meteohub,2013-09-20 20:32:00,
2013-09-20 13:37:00,70.3,61.3,29.79,WSW,252,16.0,25.0,73,0.00,,,0.00,meteohub,2013-09-20 20:37:00,
2013-09-20 13:42:00,70.2,61.5,29.78,WSW,243,17.0,25.0,74,0.00,,,0.00,meteohub,2013-09-20 20:42:00,
2013-09-20 13:47:00,69.1,61.2,29.78,West,263,16.0,24.0,76,0.00,,,0.00,meteohub,2013-09-20 20:47:00,
2013-09-20 13:52:00,68.7,61.2,29.78,SW,236,16.0,24.0,77,0.00,,,0.00,meteohub,2013-09-20 20:52:00,
2013-09-20 13:57:00,68.2,61.0,29.78,WSW,248,20.0,24.0,78,0.00,,,0.00,meteohub,2013-09-20 20:57:00,
2013-09-20 14:02:00,68.0,60.4,29.78,West,259,12.0,22.0,77,0.00,,,0.00,meteohub,2013-09-20 21:02:00,
2013-09-20 14:07:00,67.8,60.6,29.78,West,277,8.0,22.0,78,0.00,,,0.00,meteohub,2013-09-20 21:07:00,
2013-09-20 14:12:00,69.1,61.5,29.78,WSW,250,21.0,22.0,77,0.00,,,0.00,meteohub,2013-09-20 21:12:00,
2013-09-20 14:17:00,69.3,61.3,29.78,West,260,12.0,21.0,76,0.00,,,0.00,meteohub,2013-09-20 21:17:00,
2013-09-20 14:22:00,69.6,61.3,29.78,West,267,15.0,22.0,75,0.00,,,0.00,meteohub,2013-09-20 21:22:00,
2013-09-20 14:27:00,69.6,61.0,29.78,WSW,242,13.0,22.0,74,0.00,,,0.00,meteohub,2013-09-20 21:27:00,
2013-09-20 14:32:00,70.0,61.7,29.78,SW,233,19.0,22.0,75,0.00,,,0.00,meteohub,2013-09-20 21:32:00,
2013-09-20 14:37:00,70.0,61.7,29.78,WSW,246,18.0,22.0,75,0.00,,,0.00,meteohub,2013-09-20 21:37:00,
2013-09-20 14:42:00,70.3,61.3,29.78,SSW,209,16.0,21.0,73,0.00,,,0.00,meteohub,2013-09-20 21:42:00,
2013-09-20 14:47:00,70.5,61.0,29.78,WSW,252,11.0,21.0,72,0.00,,,0.00,meteohub,2013-09-20 21:47:00,
2013-09-20 14:52:00,71.2,61.3,29.78,WSW,249,14.0,20.0,71,0.00,,,0.00,meteohub,2013-09-20 21:52:00,
2013-09-20 14:57:00,71.2,60.6,29.78,West,267,20.0,20.0,69,0.00,,,0.00,meteohub,2013-09-20 21:57:00,
2013-09-20 15:02:00,70.7,61.2,29.78,WSW,244,11.0,20.0,72,0.00,,,0.00,meteohub,2013-09-20 22:02:00,
2013-09-20 15:07:00,71.1,61.2,29.78,WSW,239,14.0,20.0,71,0.00,,,0.00,meteohub,2013-09-20 22:07:00,
2013-09-20 15:12:00,70.9,61.0,29.78,West,263,15.0,20.0,71,0.00,,,0.00,meteohub,2013-09-20 22:12:00,
2013-09-20 15:17:00,70.0,60.6,29.78,WSW,248,12.0,19.0,72,0.00,,,0.00,meteohub,2013-09-20 22:17:00,
2013-09-20 15:22:00,70.5,60.6,29.78,WSW,240,17.0,19.0,71,0.00,,,0.00,meteohub,2013-09-20 22:22:00,
2013-09-20 15:27:00,70.2,60.6,29.78,WSW,238,11.0,20.0,72,0.00,,,0.00,meteohub,2013-09-20 22:27:00,
2013-09-20 15:32:00,70.0,61.0,29.78,West,261,13.0,21.0,73,0.00,,,0.00,meteohub,2013-09-20 22:32:00,
2013-09-20 15:37:00,69.6,60.6,29.78,WSW,245,8.0,21.0,73,0.00,,,0.00,meteohub,2013-09-20 22:37:00,
2013-09-20 15:42:00,69.6,60.6,29.78,West,259,17.0,19.0,73,0.00,,,0.00,meteohub,2013-09-20 22:42:00,
2013-09-20 15:47:00,69.3,60.6,29.78,West,265,8.0,19.0,74,0.00,,,0.00,meteohub,2013-09-20 22:47:00,
2013-09-20 15:52:00,69.4,60.8,29.78,WSW,243,17.0,19.0,74,0.00,,,0.00,meteohub,2013-09-20 22:52:00,
2013-09-20 15:57:00,69.1,60.8,29.78,WSW,242,18.0,21.0,75,0.00,,,0.00,meteohub,2013-09-20 22:57:00,
2013-09-20 16:02:00,69.1,60.8,29.78,WSW,258,12.0,21.0,75,0.00,,,0.00,meteohub,2013-09-20 23:02:00,
2013-09-20 16:07:00,68.7,60.4,29.78,WSW,250,12.0,21.0,75,0.00,,,0.00,meteohub,2013-09-20 23:07:00,
2013-09-20 16:12:00,68.2,60.3,29.77,WSW,255,10.0,19.0,76,0.00,,,0.00,meteohub,2013-09-20 23:12:00,
2013-09-20 16:17:00,68.5,61.0,29.77,WSW,244,16.0,19.0,77,0.00,,,0.00,meteohub,2013-09-20 23:17:00,
2013-09-20 16:22:00,68.9,60.6,29.77,WSW,243,14.0,20.0,75,0.00,,,0.00,meteohub,2013-09-20 23:22:00,
2013-09-20 16:27:00,68.2,60.3,29.78,WSW,250,13.0,20.0,76,0.00,,,0.00,meteohub,2013-09-20 23:27:00,
2013-09-20 16:32:00,68.2,60.3,29.78,WSW,243,16.0,20.0,76,0.00,,,0.00,meteohub,2013-09-20 23:32:00,
2013-09-20 16:37:00,68.2,60.6,29.78,WSW,244,11.0,18.0,77,0.00,,,0.00,meteohub,2013-09-20 23:37:00,
2013-09-20 16:42:00,67.8,60.3,29.77,WSW,257,14.0,18.0,77,0.00,,,0.00,meteohub,2013-09-20 23:42:00,
2013-09-20 16:47:00,67.8,60.6,29.77,WSW,247,12.0,18.0,78,0.00,,,0.00,meteohub,2013-09-20 23:47:00,
2013-09-20 16:52:00,68.0,60.8,29.77,WSW,237,16.0,17.0,78,0.00,,,0.00,meteohub,2013-09-20 23:52:00,
2013-09-20 16:57:00,68.5,61.0,29.77,WSW,248,11.0,20.0,77,0.00,,,0.00,meteohub,2013-09-20 23:57:00,
2013-09-20 17:02:00,68.7,61.5,29.77,SW,225,15.0,22.0,78,0.00,,,0.00,meteohub,2013-09-21 00:02:00,
2013-09-20 17:07:00,68.2,61.0,29.77,SW,229,15.0,22.0,78,0.00,,,0.00,meteohub,2013-09-21 00:07:00,
2013-09-20 17:12:00,67.5,61.2,29.78,WSW,245,11.0,20.0,80,0.00,,,0.00,meteohub,2013-09-21 00:12:00,
2013-09-20 17:17:00,66.9,61.0,29.78,SW,234,12.0,20.0,81,0.00,,,0.00,meteohub,2013-09-21 00:17:00,
2013-09-20 17:22:00,66.7,61.0,29.78,WSW,247,9.0,20.0,82,0.00,,,0.00,meteohub,2013-09-21 00:22:00,
2013-09-20 17:27:00,66.6,61.0,29.77,WSW,246,11.0,20.0,82,0.00,,,0.00,meteohub,2013-09-21 00:27:00,
2013-09-20 17:32:00,66.4,61.0,29.77,SW,220,12.0,20.0,83,0.00,,,0.00,meteohub,2013-09-21 00:32:00,
2013-09-20 17:37:00,66.4,61.0,29.77,SW,232,14.0,16.0,83,0.00,,,0.00,meteohub,2013-09-21 00:37:00,
2013-09-20 17:42:00,66.2,60.8,29.78,WSW,238,8.0,16.0,83,0.00,,,0.00,meteohub,2013-09-21 00:42:00,
2013-09-20 17:47:00,66.0,60.6,29.78,SW,225,12.0,16.0,83,0.00,,,0.00,meteohub,2013-09-21 00:47:00,
2013-09-20 17:52:00,65.8,60.6,29.78,SW,227,8.0,15.0,83,0.00,,,0.00,meteohub,2013-09-21 00:52:00,
2013-09-20 17:57:00,65.8,60.6,29.77,SW,233,12.0,15.0,83,0.00,,,0.00,meteohub,2013-09-21 00:57:00,
2013-09-20 18:02:00,65.7,60.4,29.77,SW,229,16.0,16.0,83,0.00,,,0.00,meteohub,2013-09-21 01:02:00,
2013-09-20 18:07:00,65.5,60.4,29.77,SW,232,9.0,17.0,84,0.00,,,0.00,meteohub,2013-09-21 01:07:00,
2013-09-20 18:12:00,65.5,60.4,29.77,WSW,239,14.0,17.0,84,0.00,,,0.00,meteohub,2013-09-21 01:12:00,
2013-09-20 18:17:00,65.1,60.1,29.77,WSW,240,11.0,17.0,84,0.00,,,0.00,meteohub,2013-09-21 01:17:00,
2013-09-20 18:22:00,64.9,60.3,29.77,SW,229,11.0,16.0,85,0.00,,,0.00,meteohub,2013-09-21 01:22:00,
2013-09-20 18:27:00,64.8,60.1,29.78,SW,221,9.0,16.0,85,0.00,,,0.00,meteohub,2013-09-21 01:27:00,
2013-09-20 18:32:00,64.4,60.1,29.78,SW,221,12.0,16.0,86,0.00,,,0.00,meteohub,2013-09-21 01:32:00,
2013-09-20 18:37:00,64.2,60.3,29.78,SW,230,11.0,16.0,87,0.00,,,0.00,meteohub,2013-09-21 01:37:00,
2013-09-20 18:42:00,64.0,60.1,29.78,SW,223,14.0,14.0,87,0.00,,,0.00,meteohub,2013-09-21 01:42:00,
2013-09-20 18:47:00,63.9,60.3,29.78,SW,223,12.0,16.0,88,0.00,,,0.00,meteohub,2013-09-21 01:47:00,
2013-09-20 18:52:00,63.7,60.1,29.78,SW,223,8.0,16.0,88,0.00,,,0.00,meteohub,2013-09-21 01:52:00,
2013-09-20 18:57:00,63.7,60.1,29.78,SW,224,7.0,14.0,88,0.00,,,0.00,meteohub,2013-09-21 01:57:00,
2013-09-20 19:02:00,63.5,60.3,29.78,SW,232,9.0,12.0,89,0.00,,,0.00,meteohub,2013-09-21 02:02:00,
2013-09-20 19:07:00,63.5,60.3,29.78,SW,228,9.0,13.0,89,0.00,,,0.00,meteohub,2013-09-21 02:07:00,
2013-09-20 19:12:00,63.5,60.3,29.78,SW,224,7.0,13.0,89,0.00,,,0.00,meteohub,2013-09-21 02:12:00,
2013-09-20 19:17:00,63.3,60.1,29.78,SW,219,10.0,12.0,89,0.00,,,0.00,meteohub,2013-09-21 02:17:00,
2013-09-20 19:22:00,63.1,59.9,29.78,SW,219,10.0,13.0,89,0.00,,,0.00,meteohub,2013-09-21 02:22:00,
2013-09-20 19:27:00,63.1,59.9,29.78,SW,215,10.0,13.0,89,0.00,,,0.00,meteohub,2013-09-21 02:27:00,
2013-09-20 19:32:00,63.0,59.9,29.78,SW,216,8.0,14.0,90,0.00,,,0.00,meteohub,2013-09-21 02:32:00,
2013-09-20 19:37:00,63.0,59.9,29.78,SW,215,11.0,14.0,90,0.00,,,0.00,meteohub,2013-09-21 02:37:00,
2013-09-20 19:47:00,63.0,59.9,29.78,SSW,213,10.0,14.0,90,0.00,,,0.00,meteohub,2013-09-21 02:47:00,
2013-09-20 19:52:00,63.0,59.9,29.78,SSW,212,10.0,14.0,90,0.00,,,0.00,meteohub,2013-09-21 02:52:00,
2013-09-20 19:57:00,63.0,59.9,29.78,SW,215,8.0,13.0,90,0.00,,,0.00,meteohub,2013-09-21 02:57:00,
2013-09-20 20:02:00,63.0,59.9,29.78,SW,215,7.0,12.0,90,0.00,,,0.00,meteohub,2013-09-21 03:02:00,
2013-09-20 20:07:00,63.1,60.1,29.78,SW,221,5.0,12.0,90,0.00,,,0.00,meteohub,2013-09-21 03:07:00,
2013-09-20 20:12:00,63.1,60.1,29.78,SW,221,5.0,11.0,90,0.00,,,0.00,meteohub,2013-09-21 03:12:00,
2013-09-20 20:17:00,63.1,60.1,29.78,SW,221,3.0,11.0,90,0.00,,,0.00,meteohub,2013-09-21 03:17:00,
2013-09-20 20:22:00,63.1,60.1,29.78,SW,221,4.0,11.0,90,0.00,,,0.00,meteohub,2013-09-21 03:22:00,
2013-09-20 20:27:00,63.1,60.1,29.78,SW,221,5.0,7.0,90,0.00,,,0.00,meteohub,2013-09-21 03:27:00,
2013-09-20 20:32:00,63.1,59.9,29.78,SW,219,4.0,8.0,89,0.00,,,0.00,meteohub,2013-09-21 03:32:00,
2013-09-20 20:37:00,63.1,59.9,29.78,SW,219,4.0,8.0,89,0.00,,,0.00,meteohub,2013-09-21 03:37:00,
2013-09-20 20:42:00,63.1,59.9,29.78,SW,219,3.0,8.0,89,0.00,,,0.00,meteohub,2013-09-21 03:42:00,
2013-09-20 20:47:00,63.1,59.9,29.78,SW,219,3.0,8.0,89,0.00,,,0.00,meteohub,2013-09-21 03:47:00,
2013-09-20 20:52:00,63.1,59.9,29.78,SW,219,4.0,8.0,89,0.00,,,0.00,meteohub,2013-09-21 03:52:00,
2013-09-20 20:57:00,63.1,59.9,29.78,SW,219,3.0,8.0,89,0.00,,,0.00,meteohub,2013-09-21 03:57:00,
2013-09-20 21:02:00,63.1,59.9,29.78,SW,219,3.0,8.0,89,0.00,,,0.00,meteohub,2013-09-21 04:02:00,
2013-09-20 21:07:00,63.1,59.9,29.78,SW,217,8.0,8.0,89,0.00,,,0.00,meteohub,2013-09-21 04:07:00,
2013-09-20 21:12:00,63.1,59.9,29.79,SW,218,6.0,10.0,89,0.00,,,0.00,meteohub,2013-09-21 04:12:00,
2013-09-20 21:17:00,63.3,60.1,29.79,SW,218,9.0,10.0,89,0.00,,,0.00,meteohub,2013-09-21 04:17:00,
2013-09-20 21:22:00,63.3,59.7,29.79,SW,219,4.0,10.0,88,0.00,,,0.00,meteohub,2013-09-21 04:22:00,
2013-09-20 21:27:00,63.3,59.7,29.78,SW,219,3.0,9.0,88,0.00,,,0.00,meteohub,2013-09-21 04:27:00,
2013-09-20 21:32:00,63.3,59.7,29.78,SW,219,4.0,9.0,88,0.00,,,0.00,meteohub,2013-09-21 04:32:00,
2013-09-20 21:37:00,63.1,59.9,29.78,SW,217,6.0,7.0,89,0.00,,,0.00,meteohub,2013-09-21 04:37:00,
2013-09-20 21:42:00,63.1,59.9,29.79,SW,217,4.0,9.0,89,0.00,,,0.00,meteohub,2013-09-21 04:42:00,
2013-09-20 21:47:00,63.0,59.7,29.79,SW,217,3.0,9.0,89,0.00,,,0.00,meteohub,2013-09-21 04:47:00,
2013-09-20 21:52:00,62.8,59.5,29.79,SW,217,4.0,9.0,89,0.00,,,0.00,meteohub,2013-09-21 04:52:00,
2013-09-20 21:57:00,62.8,59.7,29.79,SW,217,3.0,7.0,90,0.00,,,0.00,meteohub,2013-09-21 04:57:00,
2013-09-20 22:02:00,62.6,59.5,29.79,SW,217,1.0,7.0,90,0.00,,,0.00,meteohub,2013-09-21 05:02:00,
2013-09-20 22:07:00,62.6,59.5,29.79,SW,217,6.0,7.0,90,0.00,,,0.00,meteohub,2013-09-21 05:07:00,
2013-09-20 22:12:00,62.8,59.7,29.78,SW,217,8.0,8.0,90,0.00,,,0.00,meteohub,2013-09-21 05:12:00,
2013-09-20 22:17:00,62.6,59.5,29.78,SSW,211,7.0,8.0,90,0.00,,,0.00,meteohub,2013-09-21 05:17:00,
2013-09-20 22:22:00,62.6,59.5,29.78,SSW,211,3.0,9.0,90,0.00,,,0.00,meteohub,2013-09-21 05:22:00,
2013-09-20 22:27:00,62.6,59.5,29.78,SSW,211,3.0,9.0,90,0.00,,,0.00,meteohub,2013-09-21 05:27:00,
2013-09-20 22:32:00,62.6,59.5,29.78,SSW,211,3.0,9.0,90,0.00,,,0.00,meteohub,2013-09-21 05:32:00,
2013-09-20 22:37:00,62.8,60.1,29.78,SSW,211,5.0,7.0,91,0.00,,,0.00,meteohub,2013-09-21 05:37:00,
2013-09-20 22:42:00,62.8,60.1,29.78,SSW,211,4.0,7.0,91,0.00,,,0.00,meteohub,2013-09-21 05:42:00,
2013-09-20 22:47:00,62.8,60.1,29.78,SSW,209,5.0,7.0,91,0.00,,,0.00,meteohub,2013-09-21 05:47:00,
2013-09-20 22:52:00,63.0,60.3,29.78,SSW,207,7.0,10.0,91,0.00,,,0.00,meteohub,2013-09-21 05:52:00,
2013-09-20 22:57:00,63.0,60.3,29.78,SSW,203,7.0,10.0,91,0.00,,,0.00,meteohub,2013-09-21 05:57:00,
2013-09-20 23:02:00,63.0,60.3,29.78,SSW,199,7.0,10.0,91,0.00,,,0.00,meteohub,2013-09-21 06:02:00,
2013-09-20 23:07:00,62.8,60.1,29.78,SSW,192,9.0,10.0,91,0.00,,,0.00,meteohub,2013-09-21 06:07:00,
2013-09-20 23:12:00,62.6,60.3,29.77,South,191,6.0,10.0,92,0.00,,,0.00,meteohub,2013-09-21 06:12:00,
2013-09-20 23:17:00,62.2,60.3,29.77,South,190,8.0,10.0,93,0.00,,,0.00,meteohub,2013-09-21 06:17:00,
2013-09-20 23:22:00,62.1,60.1,29.77,South,190,5.0,10.0,93,0.00,,,0.00,meteohub,2013-09-21 06:22:00,
2013-09-20 23:27:00,62.1,60.3,29.77,South,183,5.0,10.0,94,0.00,,,0.00,meteohub,2013-09-21 06:27:00,
2013-09-20 23:32:00,61.9,60.1,29.77,South,183,6.0,10.0,94,0.00,,,0.00,meteohub,2013-09-21 06:32:00,
2013-09-20 23:37:00,61.7,59.9,29.77,WSW,241,7.0,10.0,94,0.00,,,0.00,meteohub,2013-09-21 06:37:00,
2013-09-20 23:42:00,61.5,60.1,29.77,South,188,7.0,9.0,95,0.00,,,0.00,meteohub,2013-09-21 06:42:00,
2013-09-20 23:47:00,61.5,60.1,29.77,SSW,197,6.0,10.0,95,0.00,,,0.00,meteohub,2013-09-21 06:47:00,
2013-09-20 23:52:00,61.5,60.1,29.77,SSW,193,9.0,10.0,95,0.00,,,0.00,meteohub,2013-09-21 06:52:00,
2013-09-20 23:57:00,61.7,60.3,29.78,SSW,197,8.0,11.0,95,0.00,,,0.00,meteohub,2013-09-21 06:57:00,